Time;durP1;ratioP1;P1;durP2;ratioP2;P2;SDS_P1;SDS_P2;PMS_P1;PMS_P2;Temp;Humidity;BMP_temperature;BMP_pressure;BME280_temperature;BME280_humidity;BME280_pressure;Samples;Min_cycle;Max_cycle;Signal;HPM_P1;HPM_P2
2021/12/23 00:04:31;;;;;;;103.78;52.00;;;;;;;-4.18;77.89;101507.56;3493191;78;21009;-69
2021/12/23 00:09:28;;;;;;;99.70;52.40;;;;;;;-4.19;78.11;101498.14;3528335;78;21025;-71
2021/12/23 00:14:14;;;;;;;101.45;52.00;;;;;;;-4.19;78.05;101495.22;3519375;79;22089;-71
2021/12/23 00:19:16;;;;;;;92.92;50.03;;;;;;;-4.17;78.09;101485.20;3470086;79;21011;-70
2021/12/23 00:24:00;;;;;;;93.87;52.10;;;;;;;-4.16;78.13;101485.73;3495620;79;21034;-70
2021/12/23 00:28:53;;;;;;;89.00;47.53;;;;;;;-4.13;78.07;101469.47;3494086;79;20960;-69
2021/12/23 00:33:44;;;;;;;87.17;47.45;;;;;;;-4.12;78.05;101467.45;3459730;78;21457;-70
2021/12/23 00:38:41;;;;;;;86.65;44.42;;;;;;;-4.13;78.01;101461.84;3526934;79;21168;-71
2021/12/23 00:43:31;;;;;;;80.92;45.48;;;;;;;-4.14;78.05;101458.81;3471984;78;20916;-70
2021/12/23 00:48:22;;;;;;;77.70;41.20;;;;;;;-4.16;78.11;101466.67;3493911;78;20922;-70
2021/12/23 00:53:19;;;;;;;80.75;43.17;;;;;;;-4.14;78.12;101452.45;3484460;78;20936;-70
2021/12/23 00:58:08;;;;;;;86.78;44.05;;;;;;;-4.17;78.05;101449.64;3534790;78;21042;-70
2021/12/23 01:03:00;;;;;;;73.70;37.47;;;;;;;-4.21;78.09;101435.40;3537199;79;24532;-71
2021/12/23 01:07:51;;;;;;;81.85;44.05;;;;;;;-4.22;77.98;101434.91;3524539;79;20994;-70
2021/12/23 01:12:49;;;;;;;81.65;42.17;;;;;;;-4.18;78.30;101427.56;3558769;79;21026;-70
2021/12/23 01:17:56;;;;;;;54.53;29.27;;;;;;;-4.15;78.36;101424.00;3568662;78;20953;-71
2021/12/23 01:22:47;;;;;;;87.17;42.03;;;;;;;-4.15;78.14;101422.73;3541428;78;20960;-70
2021/12/23 01:27:38;;;;;;;76.05;38.95;;;;;;;-4.17;78.34;101416.23;3491707;78;26938;-70
2021/12/23 01:32:29;;;;;;;70.97;38.20;;;;;;;-4.13;78.37;101408.51;3507929;78;20940;-70
2021/12/23 01:37:19;;;;;;;73.30;39.13;;;;;;;-4.18;78.17;101408.12;3522185;78;20947;-71
2021/12/23 01:42:10;;;;;;;72.37;39.50;;;;;;;-4.19;78.17;101401.25;3577750;78;21575;-71
2021/12/23 01:47:02;;;;;;;73.72;41.15;;;;;;;-4.18;78.33;101396.70;3447759;78;20903;-70
2021/12/23 01:51:53;;;;;;;78.85;41.10;;;;;;;-4.16;78.43;101393.91;3538814;78;20911;-71
2021/12/23 01:56:44;;;;;;;73.55;39.27;;;;;;;-4.14;78.37;101382.62;3554413;78;21611;-70
2021/12/23 02:01:37;;;;;;;76.83;38.20;;;;;;;-4.14;78.32;101369.53;3530095;78;20962;-70
2021/12/23 02:06:27;;;;;;;77.97;40.52;;;;;;;-4.11;78.39;101364.72;3528735;78;21405;-70
2021/12/23 02:11:18;;;;;;;68.17;37.73;;;;;;;-4.10;78.37;101364.33;3471162;78;20883;-70
2021/12/23 02:16:09;;;;;;;60.80;35.40;;;;;;;-4.11;78.38;101371.46;3545221;78;20954;-70
2021/12/23 02:21:03;;;;;;;65.30;35.60;;;;;;;-4.13;78.25;101352.63;3560704;78;28470;-70
2021/12/23 02:25:54;;;;;;;68.95;38.35;;;;;;;-4.14;78.34;101349.21;3463447;79;20896;-71
2021/12/23 02:30:51;;;;;;;64.47;34.70;;;;;;;-4.15;78.45;101335.11;3527216;78;20959;-71
2021/12/23 02:35:41;;;;;;;66.33;35.75;;;;;;;-4.17;78.37;101333.70;3501752;78;21480;-70
2021/12/23 02:40:39;;;;;;;65.92;34.25;;;;;;;-4.17;78.41;101332.44;3481430;78;21053;-71
2021/12/23 02:45:30;;;;;;;59.65;30.30;;;;;;;-4.15;78.49;101323.68;3555777;78;20975;-70
2021/12/23 02:50:21;;;;;;;62.95;33.53;;;;;;;-4.14;78.36;101313.66;3450462;79;22099;-70
2021/12/23 02:55:12;;;;;;;57.75;31.07;;;;;;;-4.17;78.35;101313.38;3459092;79;20995;-69
2021/12/23 03:00:06;;;;;;;58.17;31.40;;;;;;;-4.18;78.43;101301.47;3504515;79;26408;-69
2021/12/23 03:04:57;;;;;;;54.98;28.25;;;;;;;-4.17;78.37;101290.92;3526423;78;21163;-69
2021/12/23 03:09:48;;;;;;;53.33;27.37;;;;;;;-4.16;78.44;101283.44;3536038;79;26515;-70
2021/12/23 03:14:39;;;;;;;54.23;26.55;;;;;;;-4.14;78.38;101281.03;3458432;79;20960;-70
2021/12/23 03:19:31;;;;;;;38.90;23.00;;;;;;;-4.15;78.32;101280.51;3493178;79;20960;-69
2021/12/23 03:24:22;;;;;;;50.90;26.20;;;;;;;-4.14;78.12;101279.77;3495128;79;20901;-71
2021/12/23 03:29:14;;;;;;;46.15;24.55;;;;;;;-4.13;78.15;101266.28;3511293;79;23362;-70
2021/12/23 03:34:06;;;;;;;39.55;20.60;;;;;;;-4.13;78.01;101263.74;3494676;79;21074;-70
2021/12/23 03:38:57;;;;;;;44.93;22.77;;;;;;;-4.14;77.89;101254.36;3454974;79;20936;-69
2021/12/23 03:43:48;;;;;;;42.30;21.85;;;;;;;-4.11;77.85;101244.08;3466139;79;20995;-70
2021/12/23 03:48:39;;;;;;;41.75;22.05;;;;;;;-4.07;77.87;101238.88;3481462;79;26560;-69
2021/12/23 03:53:30;;;;;;;39.65;19.85;;;;;;;-4.07;77.70;101231.26;3533432;78;21940;-69
2021/12/23 03:58:21;;;;;;;33.98;18.05;;;;;;;-4.07;77.65;101225.78;3473800;79;20964;-70
2021/12/23 04:03:12;;;;;;;38.33;20.17;;;;;;;-4.05;77.43;101232.27;3525182;78;20955;-69
2021/12/23 04:08:05;;;;;;;38.98;19.30;;;;;;;-4.08;77.36;101224.38;3489398;79;20896;-70
2021/12/23 04:12:57;;;;;;;35.73;17.62;;;;;;;-4.09;77.46;101212.47;3484475;78;20943;-69
2021/12/23 04:17:49;;;;;;;37.35;19.60;;;;;;;-4.14;77.08;101201.91;3508583;78;21081;-70
2021/12/23 04:22:42;;;;;;;34.45;18.32;;;;;;;-4.21;77.22;101199.23;3461159;78;20999;-70
2021/12/23 04:27:34;;;;;;;42.25;21.37;;;;;;;-4.27;77.20;101196.19;3476243;79;20909;-70
2021/12/23 04:32:25;;;;;;;35.33;20.02;;;;;;;-4.30;77.18;101189.58;3531297;78;21010;-70
2021/12/23 04:37:16;;;;;;;40.00;20.52;;;;;;;-4.33;77.22;101179.16;3536163;78;20889;-70
2021/12/23 04:42:08;;;;;;;47.80;22.77;;;;;;;-4.37;77.20;101161.90;3503307;79;22005;-70
2021/12/23 04:46:59;;;;;;;45.60;22.95;;;;;;;-4.42;77.19;101166.61;3502528;78;20975;-69
2021/12/23 04:51:50;;;;;;;46.00;23.57;;;;;;;-4.41;77.32;101150.98;3518365;78;21643;-70
2021/12/23 04:56:41;;;;;;;42.67;21.82;;;;;;;-4.39;77.32;101144.78;3447999;78;20967;-70
2021/12/23 05:01:32;;;;;;;42.10;22.17;;;;;;;-4.40;77.18;101124.83;3481265;78;21018;-70
2021/12/23 05:06:24;;;;;;;36.98;19.70;;;;;;;-4.39;77.19;101125.35;3489881;78;21008;-69
2021/12/23 05:11:16;;;;;;;37.28;21.25;;;;;;;-4.36;77.17;101119.27;3451104;79;20987;-70
2021/12/23 05:16:07;;;;;;;32.17;18.70;;;;;;;-4.33;77.04;101113.15;3479531;79;20987;-70
2021/12/23 05:20:59;;;;;;;32.88;16.73;;;;;;;-4.33;76.86;101107.19;3517583;79;24306;-70
2021/12/23 05:25:49;;;;;;;41.95;20.15;;;;;;;-4.34;76.62;101110.52;3522776;79;20959;-71
2021/12/23 05:30:41;;;;;;;43.78;17.65;;;;;;;-4.39;76.57;101099.97;3436975;79;26901;-70
2021/12/23 05:35:32;;;;;;;41.28;20.80;;;;;;;-4.45;76.56;101089.31;3457694;79;21671;-70
2021/12/23 05:40:27;;;;;;;46.00;23.75;;;;;;;-4.51;76.48;101083.71;3457493;79;20951;-69
2021/12/23 05:45:19;;;;;;;40.38;19.27;;;;;;;-4.54;76.62;101071.67;3479081;79;20991;-70
2021/12/23 05:50:13;;;;;;;37.40;19.62;;;;;;;-4.52;76.64;101069.27;3537941;79;20984;-70
2021/12/23 05:55:07;;;;;;;45.55;20.95;;;;;;;-4.54;76.36;101066.95;3498976;79;21104;-70
2021/12/23 05:59:58;;;;;;;37.85;19.82;;;;;;;-4.52;76.57;101059.12;3481718;79;21430;-69
2021/12/23 06:04:49;;;;;;;40.75;21.30;;;;;;;-4.51;76.59;101050.72;3497687;79;20948;-69
2021/12/23 06:09:40;;;;;;;37.93;21.73;;;;;;;-4.47;76.55;101055.28;3478141;78;20909;-70
2021/12/23 06:14:31;;;;;;;42.98;22.67;;;;;;;-4.43;76.58;101050.98;3510046;79;20917;-70
2021/12/23 06:19:23;;;;;;;46.60;22.75;;;;;;;-4.39;76.61;101059.34;3435437;79;27709;-70
2021/12/23 06:24:14;;;;;;;43.52;23.12;;;;;;;-4.38;76.40;101050.98;3483747;79;21017;-70
2021/12/23 06:29:04;;;;;;;38.50;20.00;;;;;;;-4.37;76.42;101054.01;3463464;79;20976;-70
2021/12/23 06:33:55;;;;;;;45.52;22.27;;;;;;;-4.39;76.27;101033.96;3497643;79;21011;-70
2021/12/23 06:38:47;;;;;;;41.35;21.87;;;;;;;-4.39;76.28;101043.23;3505564;79;20959;-70
2021/12/23 06:43:38;;;;;;;41.53;23.47;;;;;;;-4.39;76.25;101040.70;3447719;79;21055;-69
2021/12/23 06:48:33;;;;;;;41.55;22.02;;;;;;;-4.40;76.32;101029.63;3478239;79;21438;-69
2021/12/23 06:53:24;;;;;;;41.85;23.00;;;;;;;-4.38;76.31;101035.75;3487573;79;20873;-70
2021/12/23 06:58:15;;;;;;;39.83;22.35;;;;;;;-4.35;76.31;101038.52;3467410;79;20965;-70
2021/12/23 07:03:06;;;;;;;47.08;22.02;;;;;;;-4.33;76.08;101030.64;3458224;78;21772;-69
2021/12/23 07:08:05;;;;;;;39.42;21.07;;;;;;;-4.29;75.96;101031.41;3499048;79;24364;-70
2021/12/23 07:12:50;;;;;;;38.17;21.37;;;;;;;-4.26;75.97;101024.03;3475427;79;21063;-70
2021/12/23 07:17:42;;;;;;;39.10;19.92;;;;;;;-4.26;75.72;101022.75;3509752;79;20936;-70
2021/12/23 07:22:33;;;;;;;41.50;21.70;;;;;;;-4.19;75.66;101014.38;3515385;79;21493;-69
2021/12/23 07:27:24;;;;;;;40.95;22.20;;;;;;;-4.12;75.76;101012.84;3490662;79;21984;-70
2021/12/23 07:32:15;;;;;;;44.95;22.32;;;;;;;-4.05;75.67;101008.75;3487749;79;25961;-71
2021/12/23 07:37:06;;;;;;;36.40;21.00;;;;;;;-4.00;75.61;100993.90;3451913;79;20948;-70
2021/12/23 07:41:57;;;;;;;41.92;23.75;;;;;;;-3.96;75.23;100983.20;3492903;79;20960;-70
2021/12/23 07:46:51;;;;;;;49.03;22.27;;;;;;;-3.92;75.28;100983.55;3439290;79;21481;-69
2021/12/23 07:51:42;;;;;;;42.03;21.80;;;;;;;-3.87;75.13;100986.47;3492328;79;21058;-70
2021/12/23 07:56:33;;;;;;;39.35;22.45;;;;;;;-3.77;75.26;100974.08;3496680;78;26897;-70
2021/12/23 08:01:24;;;;;;;42.78;21.65;;;;;;;-3.70;75.14;100969.98;3524317;79;20952;-70
2021/12/23 08:06:15;;;;;;;36.75;21.10;;;;;;;-3.66;74.53;100959.31;3441105;79;20904;-70
2021/12/23 08:11:07;;;;;;;33.30;19.65;;;;;;;-3.61;74.75;100957.11;3564005;78;20971;-69
2021/12/23 08:16:00;;;;;;;39.67;19.60;;;;;;;-3.53;74.61;100949.31;3497248;78;21472;-69
2021/12/23 08:20:51;;;;;;;36.25;19.37;;;;;;;-3.48;74.27;100953.48;3490894;79;21119;-69
2021/12/23 08:25:42;;;;;;;37.98;22.10;;;;;;;-3.38;74.44;100938.54;3513394;78;21014;-70
2021/12/23 08:30:34;;;;;;;35.48;20.27;;;;;;;-3.34;74.02;100935.48;3522368;78;20938;-70
2021/12/23 08:35:26;;;;;;;42.20;20.43;;;;;;;-3.32;73.78;100925.04;3483438;78;20955;-69
2021/12/23 08:40:22;;;;;;;36.95;21.42;;;;;;;-3.23;73.87;100919.37;3554519;78;21445;-70
2021/12/23 08:45:14;;;;;;;33.10;18.23;;;;;;;-3.13;73.85;100914.21;3545797;78;22464;-69
2021/12/23 08:50:08;;;;;;;35.13;20.82;;;;;;;-3.01;73.59;100899.34;3475689;78;21498;-70
2021/12/23 08:54:59;;;;;;;37.75;21.65;;;;;;;-2.91;73.46;100887.81;3515164;78;21547;-70
2021/12/23 08:59:50;;;;;;;28.17;17.32;;;;;;;-2.85;73.30;100880.62;3572918;79;20923;-70
2021/12/23 09:04:41;;;;;;;33.48;19.98;;;;;;;-2.73;73.10;100886.60;3574904;78;26556;-71
2021/12/23 09:09:33;;;;;;;33.63;19.17;;;;;;;-2.63;72.94;100874.53;3565637;78;22453;-70
2021/12/23 09:14:25;;;;;;;37.00;21.37;;;;;;;-2.48;72.86;100868.02;3539512;79;20942;-71
2021/12/23 09:19:16;;;;;;;36.00;22.07;;;;;;;-2.38;72.45;100859.36;3534723;78;20927;-70
2021/12/23 09:24:07;;;;;;;30.88;19.07;;;;;;;-2.33;72.43;100846.16;3528055;78;24802;-70
2021/12/23 09:29:11;;;;;;;40.05;19.35;;;;;;;-2.21;71.98;100847.83;3447926;79;20999;-71
2021/12/23 09:33:57;;;;;;;31.37;19.32;;;;;;;-2.15;71.64;100840.59;3468180;78;21222;-71
2021/12/23 09:38:48;;;;;;;38.48;19.82;;;;;;;-2.04;71.78;100838.43;3558155;79;28212;-72
2021/12/23 09:43:42;;;;;;;35.28;20.37;;;;;;;-1.95;71.67;100826.69;3563143;78;22175;-74
2021/12/23 09:48:33;;;;;;;40.65;20.72;;;;;;;-1.87;71.54;100813.22;3491776;79;21464;-73
2021/12/23 09:53:26;;;;;;;35.08;20.68;;;;;;;-1.78;71.13;100804.91;3546763;78;20935;-73
2021/12/23 09:58:18;;;;;;;31.77;19.70;;;;;;;-1.61;71.38;100799.30;3480036;78;21401;-73
2021/12/23 10:03:09;;;;;;;28.47;15.95;;;;;;;-1.53;70.32;100789.59;3572188;78;20939;-72
2021/12/23 10:08:01;;;;;;;24.87;15.48;;;;;;;-1.51;70.39;100795.67;3529003;79;21013;-76
2021/12/23 10:38:34;;;;;;;29.90;18.90;;;;;;;-1.17;69.81;100747.74;3485358;78;20963;-71
2021/12/23 10:43:37;;;;;;;33.53;20.00;;;;;;;-1.03;69.47;100733.72;3555779;78;20971;-74
2021/12/23 10:48:33;;;;;;;33.18;21.42;;;;;;;-1.00;69.37;100723.72;3563272;78;21173;-72
2021/12/23 10:58:40;;;;;;;30.12;20.02;;;;;;;-0.87;69.02;100704.55;3522435;78;21034;-73
2021/12/23 11:03:37;;;;;;;34.80;20.08;;;;;;;-0.78;69.08;100684.69;3435701;79;26023;-73
2021/12/23 11:08:45;;;;;;;26.70;16.77;;;;;;;-0.75;68.43;100662.69;3496766;78;21042;-71
2021/12/23 11:29:45;;;;;;;36.28;22.35;;;;;;;0.51;67.79;100606.15;3519600;79;20864;-72
2021/12/23 11:39:24;;;;;;;36.08;20.92;;;;;;;0.49;66.95;100582.17;3484752;78;20989;-72
2021/12/23 11:44:05;;;;;;;32.00;18.50;;;;;;;0.29;67.27;100572.98;3471929;79;21616;-71
2021/12/23 11:48:58;;;;;;;33.60;21.37;;;;;;;0.10;67.21;100559.55;3444546;78;20912;-72
2021/12/23 11:53:49;;;;;;;32.65;20.40;;;;;;;-0.11;67.29;100553.22;3484167;78;20947;-72
2021/12/23 11:58:45;;;;;;;28.15;17.92;;;;;;;-0.26;67.47;100543.02;3469650;78;21432;-72
2021/12/23 12:03:54;;;;;;;37.65;21.57;;;;;;;-0.35;67.22;100531.86;3467677;78;21567;-72
2021/12/23 12:08:46;;;;;;;33.40;19.67;;;;;;;-0.47;67.63;100514.14;3436199;79;21015;-73
2021/12/23 12:13:37;;;;;;;26.55;15.88;;;;;;;-0.54;67.18;100492.88;3510674;78;20936;-72
2021/12/23 12:18:30;;;;;;;27.58;18.35;;;;;;;-0.66;67.22;100473.00;3538713;79;20943;-74
2021/12/23 12:23:32;;;;;;;32.35;18.57;;;;;;;-0.73;67.77;100476.00;3492761;79;20932;-71
2021/12/23 12:28:45;;;;;;;33.75;20.60;;;;;;;-0.72;67.66;100462.45;3521779;78;22466;-72
2021/12/23 12:34:05;;;;;;;33.50;20.25;;;;;;;-0.78;67.99;100454.91;3501909;78;21130;-71
2021/12/23 12:39:10;;;;;;;43.23;22.77;;;;;;;-0.80;67.93;100442.87;3506522;78;21030;-71
2021/12/23 12:44:27;;;;;;;38.95;22.48;;;;;;;-0.93;67.84;100427.24;3489398;78;20970;-71
2021/12/23 12:49:30;;;;;;;37.93;21.55;;;;;;;-0.99;68.08;100420.48;3505328;79;20955;-72
2021/12/23 12:54:31;;;;;;;36.42;21.68;;;;;;;-1.09;67.98;100425.83;3519863;79;20939;-73
2021/12/23 12:59:29;;;;;;;40.60;22.48;;;;;;;-1.17;67.87;100408.41;3488053;78;20952;-72
2021/12/23 13:04:40;;;;;;;35.95;20.95;;;;;;;-1.20;68.51;100404.42;3511597;78;20917;-73
2021/12/23 13:09:33;;;;;;;34.75;22.15;;;;;;;-1.28;68.27;100395.82;3525851;78;20998;-68
2021/12/23 13:14:57;;;;;;;44.00;22.45;;;;;;;-1.33;68.59;100400.64;3385915;82;20995;-71
2021/12/23 13:20:04;;;;;;;32.28;18.70;;;;;;;-1.36;68.74;100385.14;3212545;87;21567;-71
2021/12/23 13:24:55;;;;;;;41.58;21.97;;;;;;;-1.36;68.70;100381.31;3189386;87;21095;-71
2021/12/23 13:29:46;;;;;;;37.58;21.70;;;;;;;-1.42;68.79;100372.91;3194277;87;21558;-72
2021/12/23 13:34:37;;;;;;;41.10;22.98;;;;;;;-1.47;68.83;100374.70;3225154;87;21015;-72
2021/12/23 13:39:33;;;;;;;43.65;23.22;;;;;;;-1.49;69.12;100369.92;3210559;87;27344;-70
2021/12/23 13:44:31;;;;;;;44.53;24.02;;;;;;;-1.51;69.23;100367.27;3204649;87;21166;-70
2021/12/23 13:49:36;;;;;;;42.75;24.92;;;;;;;-1.56;69.32;100349.17;3301169;78;20995;-73
2021/12/23 13:54:38;;;;;;;42.67;23.12;;;;;;;-1.62;69.29;100339.86;3452465;78;21008;-71
2021/12/23 13:59:30;;;;;;;53.08;24.20;;;;;;;-1.67;69.45;100327.23;3523954;78;20979;-72
2021/12/23 14:04:41;;;;;;;50.65;25.32;;;;;;;-1.73;69.58;100319.23;3423070;79;21430;-73
2021/12/23 14:09:56;;;;;;;46.83;26.30;;;;;;;-1.79;69.75;100312.11;3465652;79;21016;-71
2021/12/23 14:15:00;;;;;;;46.50;26.68;;;;;;;-1.83;69.70;100304.17;3357051;82;21043;-73
2021/12/23 14:25:34;;;;;;;41.80;22.98;;;;;;;-1.93;69.99;100293.43;3370013;83;20932;-70
2021/12/23 14:30:39;;;;;;;51.40;27.35;;;;;;;-1.98;69.99;100279.94;3355559;83;21532;-72
2021/12/23 14:35:29;;;;;;;50.73;27.17;;;;;;;-2.03;70.28;100277.50;3368524;83;21027;-71
2021/12/23 14:40:23;;;;;;;50.05;27.40;;;;;;;-2.06;70.32;100275.63;3351502;83;20991;-72
2021/12/23 14:45:18;;;;;;;43.45;25.88;;;;;;;-2.07;70.28;100268.80;3317927;84;20982;-71
2021/12/23 14:50:15;;;;;;;49.45;27.27;;;;;;;-2.11;70.31;100255.00;3435936;78;20944;-71
2021/12/23 14:55:14;;;;;;;49.10;25.97;;;;;;;-2.11;70.42;100262.63;3558788;78;20940;-71
2021/12/23 15:00:34;;;;;;;45.78;27.22;;;;;;;-2.14;70.49;100248.84;3546739;79;21319;-70
2021/12/23 15:05:27;;;;;;;49.18;28.47;;;;;;;-2.16;70.50;100235.13;3566298;78;20975;-71
2021/12/23 15:10:32;;;;;;;57.95;28.07;;;;;;;-2.21;70.50;100218.69;3453362;78;21433;-71
2021/12/23 15:15:31;;;;;;;45.60;23.90;;;;;;;-2.22;70.54;100229.66;3531672;78;20931;-71
2021/12/23 15:20:30;;;;;;;46.50;26.05;;;;;;;-2.24;70.33;100208.31;3520901;78;21480;-71
2021/12/23 15:25:19;;;;;;;44.33;26.25;;;;;;;-2.28;70.36;100194.92;3514123;78;21083;-71
2021/12/23 15:30:18;;;;;;;45.15;21.80;;;;;;;-2.30;70.25;100190.59;3526721;78;20966;-71
2021/12/23 15:35:37;;;;;;;43.78;24.40;;;;;;;-2.30;70.16;100185.50;3535541;78;20938;-72
2021/12/23 15:40:38;;;;;;;45.98;24.12;;;;;;;-2.30;70.04;100177.86;3507170;79;21007;-71
2021/12/23 15:45:32;;;;;;;42.55;22.80;;;;;;;-2.31;70.01;100165.94;3499752;79;20991;-71
2021/12/23 15:50:28;;;;;;;52.13;21.85;;;;;;;-2.30;69.89;100154.95;3495964;79;21627;-71
2021/12/23 15:55:21;;;;;;;39.10;22.10;;;;;;;-2.31;69.75;100144.30;3506934;79;20983;-70
2021/12/23 16:00:16;;;;;;;33.05;19.50;;;;;;;-2.33;69.71;100143.30;3506020;79;20912;-71
2021/12/23 16:10:08;;;;;;;45.17;21.87;;;;;;;-2.39;69.68;100116.21;3529060;79;21536;-72
2021/12/23 16:15:03;;;;;;;39.40;22.50;;;;;;;-2.40;69.57;100108.08;3531507;79;21360;-72
2021/12/23 16:19:56;;;;;;;38.58;20.57;;;;;;;-2.41;69.49;100098.70;3516873;79;21564;-71
2021/12/23 16:24:47;;;;;;;42.38;24.20;;;;;;;-2.42;69.57;100087.15;3492694;79;20991;-70
2021/12/23 16:30:14;;;;;;;36.68;21.55;;;;;;;-2.42;69.57;100084.20;3496374;79;20978;-72
2021/12/23 16:35:08;;;;;;;40.28;22.85;;;;;;;-2.43;69.42;100066.28;3470393;79;20999;-71
2021/12/23 16:39:59;;;;;;;35.23;18.17;;;;;;;-2.43;69.30;100055.73;3486010;79;21452;-70
2021/12/23 16:44:50;;;;;;;38.90;19.87;;;;;;;-2.44;69.06;100050.14;3407733;79;20998;-72
2021/12/23 16:49:41;;;;;;;38.50;21.07;;;;;;;-2.45;69.00;100050.05;3469623;79;21127;-71
2021/12/23 16:54:45;;;;;;;32.13;19.55;;;;;;;-2.44;69.26;100051.41;3510510;79;21050;-71
2021/12/23 16:59:31;;;;;;;39.78;21.05;;;;;;;-2.42;68.97;100043.47;3436490;79;20917;-70
2021/12/23 17:04:19;;;;;;;36.03;19.92;;;;;;;-2.44;68.92;100033.59;3460517;79;21516;-70
2021/12/23 17:09:10;;;;;;;36.98;18.85;;;;;;;-2.49;68.72;100023.53;3415612;80;28014;-70
2021/12/23 17:14:01;;;;;;;35.15;19.27;;;;;;;-2.50;68.94;100012.48;3464991;80;21217;-70
2021/12/23 17:18:58;;;;;;;34.95;18.45;;;;;;;-2.51;68.78;100004.75;3459687;79;21292;-73
2021/12/23 17:23:47;;;;;;;41.13;22.62;;;;;;;-2.54;68.85;99999.11;3456005;79;20993;-69
2021/12/23 17:28:38;;;;;;;44.25;23.87;;;;;;;-2.55;68.91;100000.28;3434343;79;21110;-71
2021/12/23 17:33:31;;;;;;;38.98;23.22;;;;;;;-2.57;69.02;99980.23;3489386;79;29085;-71
2021/12/23 17:38:26;;;;;;;40.00;20.80;;;;;;;-2.59;68.94;99967.41;3480183;79;21458;-70
2021/12/23 17:43:18;;;;;;;35.98;20.82;;;;;;;-2.62;69.02;99962.55;3450254;80;21490;-71
2021/12/23 17:48:10;;;;;;;45.10;24.57;;;;;;;-2.65;69.08;99950.91;3438524;80;20970;-70
2021/12/23 17:53:05;;;;;;;39.73;23.10;;;;;;;-2.69;69.27;99935.45;3437448;80;21457;-71
2021/12/23 17:57:55;;;;;;;47.95;27.90;;;;;;;-2.69;69.36;99921.45;3460814;79;20954;-71
2021/12/23 18:02:46;;;;;;;41.83;24.18;;;;;;;-2.74;69.35;99905.05;3480945;80;21503;-70
2021/12/23 18:07:39;;;;;;;41.42;23.50;;;;;;;-2.73;69.54;99895.36;3414691;80;20977;-70
2021/12/23 18:12:30;;;;;;;47.65;24.65;;;;;;;-2.76;69.40;99884.13;3486910;80;20946;-71
2021/12/23 18:17:21;;;;;;;46.68;25.25;;;;;;;-2.79;69.44;99872.50;3467776;80;25471;-71
2021/12/23 18:22:13;;;;;;;48.58;26.70;;;;;;;-2.81;69.56;99855.00;3411934;80;20959;-71
2021/12/23 18:27:06;;;;;;;45.98;24.90;;;;;;;-2.81;69.74;99839.33;3416992;80;21656;-71
2021/12/23 18:31:57;;;;;;;47.38;25.43;;;;;;;-2.86;69.68;99829.33;3460233;80;21331;-71
2021/12/23 18:36:50;;;;;;;50.58;27.75;;;;;;;-2.88;69.77;99824.52;3485166;80;21015;-71
2021/12/23 18:41:43;;;;;;;47.40;27.62;;;;;;;-2.88;69.75;99819.43;3468844;80;21934;-71
2021/12/23 18:46:35;;;;;;;50.38;28.40;;;;;;;-2.85;69.88;99806.89;3445237;80;20976;-69
2021/12/23 18:51:30;;;;;;;44.03;25.15;;;;;;;-2.85;69.98;99796.71;3446488;80;21541;-70
2021/12/23 18:56:21;;;;;;;53.92;26.55;;;;;;;-2.82;70.08;99784.17;3493580;80;20955;-71
2021/12/23 19:01:16;;;;;;;50.65;27.70;;;;;;;-2.83;69.90;99779.86;3457091;80;26646;-70
2021/12/23 19:06:10;;;;;;;50.40;26.40;;;;;;;-2.82;70.19;99770.18;3435569;80;22009;-70
2021/12/23 19:11:05;;;;;;;45.43;25.23;;;;;;;-2.81;70.05;99767.23;3388076;80;20943;-71
2021/12/23 19:15:57;;;;;;;41.28;22.02;;;;;;;-2.82;70.06;99756.19;3414021;80;20959;-70
2021/12/23 19:20:48;;;;;;;49.30;27.27;;;;;;;-2.83;70.05;99744.24;3439757;80;21394;-70
2021/12/23 19:25:39;;;;;;;39.60;22.90;;;;;;;-2.85;70.15;99747.11;3429055;80;20869;-70
2021/12/23 19:30:30;;;;;;;56.23;27.98;;;;;;;-2.81;70.24;99745.20;3449030;80;23545;-70
2021/12/23 19:35:22;;;;;;;51.05;27.73;;;;;;;-2.84;70.25;99733.98;3432025;80;21834;-70
2021/12/23 19:40:14;;;;;;;44.77;25.37;;;;;;;-2.83;70.38;99708.62;3532407;79;20941;-71
2021/12/23 19:45:07;;;;;;;51.05;27.00;;;;;;;-2.78;70.37;99693.22;3499222;79;21530;-71
2021/12/23 19:49:58;;;;;;;48.98;27.93;;;;;;;-2.77;70.46;99678.44;3492627;78;21009;-70
2021/12/23 19:54:49;;;;;;;45.00;26.25;;;;;;;-2.77;70.45;99663.18;3469469;78;22107;-71
2021/12/23 19:59:40;;;;;;;44.35;26.02;;;;;;;-2.77;70.36;99653.00;3469133;78;20995;-70
2021/12/23 20:04:31;;;;;;;47.35;26.80;;;;;;;-2.76;70.57;99647.50;3519942;79;21069;-71
2021/12/23 20:09:22;;;;;;;49.88;26.80;;;;;;;-2.75;70.50;99643.77;3493317;79;20995;-71
2021/12/23 20:14:13;;;;;;;47.10;26.50;;;;;;;-2.73;70.53;99631.14;3528064;78;21048;-71
2021/12/23 20:19:05;;;;;;;47.48;26.95;;;;;;;-2.70;70.59;99636.36;3552571;78;21532;-71
2021/12/23 20:23:56;;;;;;;46.35;25.68;;;;;;;-2.70;70.67;99614.36;3445898;79;21435;-71
2021/12/23 20:28:47;;;;;;;53.38;28.65;;;;;;;-2.71;70.66;99610.05;3507131;78;21448;-71
2021/12/23 20:33:38;;;;;;;44.60;25.45;;;;;;;-2.69;70.80;99594.46;3515535;79;20939;-71
2021/12/23 20:38:29;;;;;;;48.70;26.97;;;;;;;-2.67;70.75;99589.86;3480488;79;21571;-70
2021/12/23 20:43:20;;;;;;;49.77;26.68;;;;;;;-2.65;70.75;99576.81;3552138;79;20920;-70
2021/12/23 20:48:11;;;;;;;43.33;24.50;;;;;;;-2.62;70.80;99558.77;3491781;79;21115;-71
2021/12/23 20:53:06;;;;;;;48.85;27.32;;;;;;;-2.61;70.78;99549.45;3492697;79;21047;-71
2021/12/23 20:57:57;;;;;;;46.55;25.62;;;;;;;-2.59;70.85;99548.75;3536497;79;21659;-70
2021/12/23 21:02:50;;;;;;;44.50;24.37;;;;;;;-2.55;70.91;99525.19;3504244;79;20947;-70
2021/12/23 21:07:42;;;;;;;46.20;26.07;;;;;;;-2.55;70.90;99522.64;3444214;79;21755;-71
2021/12/23 21:12:34;;;;;;;47.65;26.77;;;;;;;-2.51;71.01;99519.85;3480786;78;21468;-70
2021/12/23 21:17:25;;;;;;;44.93;24.45;;;;;;;-2.49;70.91;99505.52;3455284;79;21436;-70
2021/12/23 21:22:16;;;;;;;45.33;27.40;;;;;;;-2.47;70.89;99495.02;3431581;79;21002;-70
2021/12/23 21:27:07;;;;;;;50.20;27.32;;;;;;;-2.44;71.04;99489.22;3456689;79;20995;-69
2021/12/23 21:32:03;;;;;;;49.88;25.17;;;;;;;-2.45;71.00;99475.63;3499443;78;27648;-70
2021/12/23 21:36:54;;;;;;;51.37;26.33;;;;;;;-2.41;71.13;99473.70;3529613;78;21453;-70
2021/12/23 21:41:47;;;;;;;51.90;27.70;;;;;;;-2.39;71.05;99455.55;3384428;81;36981;-71
2021/12/23 21:46:39;;;;;;;54.08;30.48;;;;;;;-2.37;71.28;99442.48;3440218;81;20966;-71
2021/12/23 21:51:34;;;;;;;50.15;28.15;;;;;;;-2.33;71.21;99431.64;3389966;80;21483;-71
2021/12/23 21:56:25;;;;;;;55.55;27.60;;;;;;;-2.31;71.31;99421.16;3465033;80;21075;-70
2021/12/23 22:01:16;;;;;;;48.33;28.05;;;;;;;-2.28;71.33;99401.73;3394193;81;28255;-70
2021/12/23 22:06:07;;;;;;;47.58;25.90;;;;;;;-2.27;71.44;99393.27;3390852;80;21562;-71
2021/12/23 22:10:58;;;;;;;52.08;28.65;;;;;;;-2.26;71.75;99385.71;3374304;80;24895;-70
2021/12/23 22:15:49;;;;;;;49.33;25.55;;;;;;;-2.24;72.18;99371.78;3360216;81;21029;-71
2021/12/23 22:20:41;;;;;;;51.63;29.60;;;;;;;-2.21;72.46;99352.83;3396706;80;21825;-71
2021/12/23 22:25:34;;;;;;;46.90;23.98;;;;;;;-2.24;72.64;99351.41;3433079;80;21503;-70
2021/12/23 22:30:26;;;;;;;53.70;27.48;;;;;;;-2.23;72.78;99334.08;3407615;81;20978;-70
2021/12/23 22:35:17;;;;;;;57.20;30.08;;;;;;;-2.22;72.85;99323.06;3387719;81;21484;-70
2021/12/23 22:40:13;;;;;;;47.50;28.35;;;;;;;-2.21;72.92;99314.64;3460289;79;20949;-70
2021/12/23 22:45:09;;;;;;;48.57;27.17;;;;;;;-2.21;73.02;99302.77;3464325;79;21790;-70
2021/12/23 22:50:00;;;;;;;49.75;28.38;;;;;;;-2.22;73.08;99290.83;3516008;79;20916;-70
2021/12/23 22:54:54;;;;;;;48.40;27.35;;;;;;;-2.21;73.22;99285.36;3512078;79;20967;-71
2021/12/23 22:59:46;;;;;;;37.78;23.15;;;;;;;-2.21;73.49;99270.94;3474763;79;20941;-70
2021/12/23 23:04:37;;;;;;;46.55;26.85;;;;;;;-2.16;73.92;99257.16;3460200;79;20943;-70
2021/12/23 23:09:28;;;;;;;44.25;24.87;;;;;;;-2.19;74.32;99241.73;3526487;79;26274;-70
2021/12/23 23:19:13;;;;;;;41.28;24.10;;;;;;;-2.22;75.12;99205.53;3506752;79;22072;-70
2021/12/23 23:24:12;;;;;;;50.95;28.40;;;;;;;-2.24;75.63;99197.37;3532472;79;20939;-70
2021/12/23 23:39:15;;;;;;;44.55;27.52;;;;;;;-2.25;76.43;99187.97;3502508;79;20923;-70